Weather at Langkawi International Airport

Public forecast

Using degrees Celsius for public forecast. Weather courtesy of forecast.io.

Current aviation weather report (METAR) for Langkawi International Airport

Retrieved 2021/04/20 18:00 UTC (59 minutes ago):

WMKL 201800Z VRB02KT 9999 FEW026 26/25 Q1010

Aviation forecast (TAF) for Langkawi International Airport

Retrieved 2021/04/20 18:00 UTC (59 minutes ago):

TAF WMKL 201700Z 2018/2118 VRB03KT 9999 FEW026 TEMPO 2020/2101 6000 -TSRA FEW010 FEW017CB BECMG 2104/2106 26006KT FEW017CB